• Join FlightAware (Why Join?)
  • Login
  • US Flag 
03:41AM EDT


 

Airport Tracker/Info


-or-


 

Live Flight TrackerFlight Track Log ✈ SWA499 ✈ 06-Aug-2013 ✈ KSFO - KSAN

Flight Track Log - Related Links

Times and Time Zones

All times are in EDT time to prevent confusion due to time zone crossing. See the SWA499 flight status page for this flight to view local times or setup timezone preferences in your user account.

Time Position Orientation Groundspeed Altitude Reporting Facility
EDT Latitude Longitude Course Direction KTS MPH feet Rate Location/Type
10:22PM 37.6667 -122.3667 191° South 192 221 2,700  Level Northern Cal TRACON
10:24PM 37.6372 -122.4986 254° West 268 308 10,000 2,940 Climbing Oakland Center
10:25PM 37.5531 -122.5036 183° South 304 350 12,900 3,600 Climbing Oakland Center
10:26PM 37.4406 -122.5178 186° South 334 384 17,500 3,540 Climbing Oakland Center
10:27PM 37.1194 -122.5493 191° South  Level FlightAware Approximate
10:27PM 37.3397 -122.5272 184° South 357 411 20,200  Level Oakland Center
10:28PM 37.2350 -122.5386 185° South 375 432 23,500 3,060 Climbing Oakland Center
10:29PM 37.1356 -122.5197 171° South 381 438 26,500 2,460 Climbing Oakland Center
10:30PM 37.0478 -122.4439 145° Southeast 382 440 28,600 1,980 Climbing Oakland Center
10:31PM 36.9536 -122.3614 145° Southeast 401 461 30,600 1,980 Climbing Oakland Center
10:32PM 36.8556 -122.2758 145° Southeast 421 484 32,700 1,920 Climbing Oakland Center
10:33PM 36.7594 -122.1903 144° Southeast 425 489 34,600 1,620 Climbing Oakland Center
10:34PM 36.6617 -122.0992 143° Southeast 444 511 36,100 1,440 Climbing Oakland Center
10:35PM 36.5619 -122.0103 144° Southeast 444 511 37,600 1,620 Climbing Oakland Center
10:36PM 36.4414 -121.9067 145° Southeast 441 507 39,400 1,260 Climbing Oakland Center
10:37PM 36.3408 -121.8206 145° Southeast 442 509 40,300 780 Climbing Oakland Center
10:38PM 36.2369 -121.7350 146° Southeast 447 514 41,000 300 Climbing Oakland Center
10:39PM 36.1364 -121.6497 146° Southeast 441 507 41,000  Level Oakland Center
10:40PM 36.0378 -121.5644 145° Southeast 436 502 41,000  Level Oakland Center
10:41PM 35.9392 -121.4786 145° Southeast 435 501 41,000  Level Oakland Center
10:43PM 35.8319 -121.3603 138° Southeast 440 506 41,000  Level Oakland Center
10:44PM 35.7589 -121.2419 127° Southeast 439 505 41,000  Level Oakland Center
10:45PM 35.6842 -121.1239 128° Southeast 438 504 41,000  Level Oakland Center
10:46PM 35.5956 -120.9800 127° Southeast 441 507 41,000  Level Oakland Center
10:47PM 35.5211 -120.8608 127° Southeast 441 507 41,000  Level Oakland Center
10:48PM 35.4442 -120.7408 128° Southeast 444 511 41,000  Level Oakland Center
10:49PM 35.3683 -120.6239 128° Southeast 444 511 41,000  Level Oakland Center
10:50PM 35.2917 -120.5047 128° Southeast 450 518 41,000  Level Oakland Center
10:51PM 35.2133 -120.3767 127° Southeast 456 525 41,000  Level Oakland Center
10:52PM 35.1278 -120.2422 128° Southeast 446 513 41,000  Level Oakland Center
10:53PM 35.0514 -120.1231 128° Southeast 448 516 41,000  Level Oakland Center
10:54PM 34.9747 -120.0050 128° Southeast 446 513 41,000  Level Oakland Center
10:55PM 34.8989 -119.8872 128° Southeast 443 510 41,000  Level Oakland Center
10:56PM 34.8225 -119.7703 128° Southeast 443 510 41,000  Level Oakland Center
10:57PM 34.7458 -119.6511 128° Southeast 447 514 41,000  Level Oakland Center
10:58PM 34.6692 -119.5333 128° Southeast 446 513 41,000  Level Oakland Center
10:59PM 34.5489 -119.3533 129° Southeast 446 513 41,000  Level Los Angeles Center
11:00PM 34.4703 -119.2350 129° Southeast 449 517 41,000  Level Los Angeles Center
11:01PM 34.3917 -119.1186 129° Southeast 449 517 41,000 -120 Level Los Angeles Center
11:02PM 34.3142 -119.0014 129° Southeast 447 514 40,800 -600 Descending Los Angeles Center
11:04PM 34.2353 -118.8831 129° Southeast 450 518 39,800 -960 Descending Los Angeles Center
11:05PM 34.1567 -118.7647 129° Southeast 452 520 38,900 -1,020 Descending Los Angeles Center
11:06PM 34.0606 -118.6228 129° Southeast 455 524 37,800 -960 Descending Los Angeles Center
11:07PM 33.9814 -118.5039 129° Southeast 454 522 37,000 -420 Descending Los Angeles Center
11:08PM 33.8986 -118.3867 130° Southeast 455 524 37,000 -780 Level Los Angeles Center
11:09PM 33.8025 -118.2731 135° Southeast 462 532 35,500 -1,200 Descending Los Angeles Center
11:10PM 33.7189 -118.1542 130° Southeast 476 548 34,600 -2,100 Descending Los Angeles Center
11:11PM 33.6319 -118.0461 134° Southeast 456 525 31,200 -2,760 Descending Los Angeles Center
11:12PM 33.5444 -117.9369 134° Southeast 454 522 29,000 -2,040 Descending Los Angeles Center
11:13PM 33.4553 -117.8247 134° Southeast 462 532 27,000 -2,580 Descending Los Angeles Center
11:13PM 33.4000 -117.7500 132° Southeast 455 524 24,900 -3,120 Descending Southern California TRACON
11:14PM 33.3167 -117.6333 131° Southeast 437 503 22,100 -2,820 Descending Southern California TRACON
11:15PM 33.2333 -117.5500 140° Southeast 425 489 19,300 -2,760 Descending Southern California TRACON
11:16PM 33.1167 -117.4500 144° Southeast 399 459 16,400 -2,580 Descending Southern California TRACON
11:17PM 33.0500 -117.4000 148° Southeast 382 440 14,200 -2,400 Descending Southern California TRACON
11:18PM 33.0017 -117.3619 147° Southeast 384 442 12,900 -1,740 Descending Los Angeles Center
11:19PM 32.9225 -117.2961 145° Southeast 357 411 11,500 -1,320 Descending Los Angeles Center
11:20PM 32.8664 -117.2506 146° Southeast 321 369 10,300 -1,980 Descending Los Angeles Center
11:21PM 32.8003 -117.1558 130° Southeast 293 337 7,500 -2,280 Descending Los Angeles Center
11:22PM 32.7794 -117.0617 105° East 293 337 5,600 -1,260 Descending Los Angeles Center
11:23PM 32.7606 -116.9756 105° East 280 322 5,000 -300 Descending Los Angeles Center
11:24PM 32.7253 -116.9333 135° Southeast 205 236 5,000 -660 Level Los Angeles Center
11:25PM 32.6808 -116.9583 205° Southwest 190 219 3,700 -1,080 Descending Los Angeles Center
11:26PM 32.6919 -117.0167 283° West 191 220 2,800 -900 Descending Los Angeles Center
11:27PM 32.7000 -117.0833 278° West 156 180 1,800 -840 Descending Southern California TRACON
11:28PM 32.7167 -117.1333 292° West 147 169 1,100 -720 Descending Southern California TRACON
11:29PM 32.7286 -117.1686 292° West 137 158 300 -720 Descending Los Angeles Center
11:31PM 32.7333 -117.1833 279° West  Level FlightAware Approximate
11:38PM 32.7336 -117.1897 279° West  Level Estimated